Time;durP1;ratioP1;P1;durP2;ratioP2;P2;SDS_P1;SDS_P2;PMS_P1;PMS_P2;Temp;Humidity;BMP_temperature;BMP_pressure;BME280_temperature;BME280_humidity;BME280_pressure;Samples;Min_cycle;Max_cycle;Signal;HPM_P1;HPM_P2
2023/07/01 00:02:14;;;;;;;0.50;0.40;;;;;;;19.59;100.00;95076.75;5073489;28;20525;-57
2023/07/01 00:04:42;;;;;;;0.50;0.30;;;;;;;19.56;98.95;95074.72;5073501;28;20539;-57
2023/07/01 00:07:11;;;;;;;0.40;0.30;;;;;;;19.48;99.12;95080.97;5073334;28;20436;-57
2023/07/01 00:09:41;;;;;;;0.60;0.37;;;;;;;19.18;100.00;95074.09;5073318;28;20437;-57
2023/07/01 00:12:09;;;;;;;0.50;0.50;;;;;;;19.37;100.00;95076.34;5073209;28;20434;-57
2023/07/01 00:14:37;;;;;;;0.53;0.40;;;;;;;19.29;100.00;95088.72;5073169;28;20474;-57
2023/07/01 00:17:11;;;;;;;0.50;0.33;;;;;;;18.74;100.00;95083.59;5072915;28;20449;-57
2023/07/01 00:19:40;;;;;;;0.60;0.40;;;;;;;19.13;100.00;95076.19;5072953;28;20437;-57
2023/07/01 00:22:08;;;;;;;0.67;0.50;;;;;;;18.95;100.00;95079.00;5047629;28;20462;-57
2023/07/01 00:24:36;;;;;;;0.40;0.27;;;;;;;19.06;100.00;95078.63;5072790;28;20837;-57
2023/07/01 00:27:07;;;;;;;0.60;0.30;;;;;;;18.68;100.00;95082.19;5071623;28;20446;-57
2023/07/01 00:29:35;;;;;;;0.50;0.40;;;;;;;18.92;100.00;95076.97;5072657;28;20429;-57
2023/07/01 00:32:04;;;;;;;0.60;0.33;;;;;;;19.27;100.00;95076.72;5072865;28;20984;-57
2023/07/01 00:34:32;;;;;;;0.60;0.33;;;;;;;19.37;100.00;95063.69;5072583;28;20520;-57
2023/07/01 00:37:01;;;;;;;1.50;0.57;;;;;;;18.91;100.00;95075.41;5072904;28;20441;-57
2023/07/01 00:39:29;;;;;;;0.70;0.50;;;;;;;18.92;100.00;95076.97;5072683;28;20453;-56
2023/07/01 00:41:57;;;;;;;0.60;0.40;;;;;;;18.93;100.00;95083.13;5072636;28;20438;-56
2023/07/01 00:44:27;;;;;;;0.63;0.40;;;;;;;19.01;100.00;95074.22;5072710;28;20528;-57
2023/07/01 00:46:56;;;;;;;0.50;0.40;;;;;;;19.28;99.78;95072.91;5061777;28;20492;-57
2023/07/01 00:49:24;;;;;;;1.07;0.73;;;;;;;19.03;100.00;95080.06;5070833;28;20872;-57
2023/07/01 00:51:53;;;;;;;0.90;0.60;;;;;;;18.87;100.00;95076.41;5072765;28;20438;-57
2023/07/01 00:54:22;;;;;;;0.50;0.40;;;;;;;18.90;100.00;95079.19;5072524;28;20954;-57
2023/07/01 00:56:50;;;;;;;0.40;0.30;;;;;;;18.99;100.00;95057.66;5072417;28;20972;-57
2023/07/01 00:59:18;;;;;;;0.50;0.43;;;;;;;19.25;99.47;95073.56;5059550;28;20922;-57
2023/07/01 01:01:52;;;;;;;0.50;0.33;;;;;;;19.30;98.11;95071.44;5072521;28;20449;-57
2023/07/01 01:04:29;;;;;;;0.40;0.30;;;;;;;19.17;100.00;95079.81;5072342;28;20936;-57
2023/07/01 01:07:04;;;;;;;0.40;0.20;;;;;;;18.86;100.00;95080.19;5072284;28;20433;-57
2023/07/01 01:09:38;;;;;;;0.40;0.30;;;;;;;19.10;100.00;95079.56;5072127;28;20471;-57
2023/07/01 01:12:11;;;;;;;0.53;0.53;;;;;;;19.17;100.00;95088.66;5072140;28;20892;-57
2023/07/01 01:14:43;;;;;;;0.40;0.20;;;;;;;19.16;99.79;95080.91;5071737;28;20504;-57
2023/07/01 01:17:15;;;;;;;0.53;0.53;;;;;;;19.18;99.28;95081.34;5072341;28;20492;-57
2023/07/01 01:19:47;;;;;;;0.47;0.30;;;;;;;19.03;100.00;95086.22;5071725;28;20971;-57
2023/07/01 01:22:22;;;;;;;1.00;0.30;;;;;;;19.01;100.00;95080.41;5072391;28;20943;-57
2023/07/01 01:24:54;;;;;;;0.50;0.33;;;;;;;19.10;99.83;95084.91;5071573;28;20555;-57
2023/07/01 01:27:27;;;;;;;0.60;0.43;;;;;;;19.00;100.00;95075.34;5071923;28;20965;-57
2023/07/01 01:29:56;;;;;;;0.60;0.40;;;;;;;18.94;100.00;95073.97;5071719;28;20469;-57
2023/07/01 01:32:25;;;;;;;0.40;0.30;;;;;;;18.98;100.00;95072.19;5071472;28;20508;-57
2023/07/01 01:34:53;;;;;;;0.40;0.30;;;;;;;19.09;100.00;95080.66;5071538;28;20492;-57
2023/07/01 01:37:28;;;;;;;0.40;0.30;;;;;;;18.96;100.00;95066.38;5071736;28;20495;-57
2023/07/01 01:40:09;;;;;;;0.50;0.40;;;;;;;19.04;100.00;95073.59;5045438;28;20437;-57
2023/07/01 01:42:41;;;;;;;0.60;0.60;;;;;;;18.92;100.00;95070.84;5071215;28;20449;-57
2023/07/01 01:45:12;;;;;;;0.80;0.80;;;;;;;18.76;100.00;95081.38;5071595;28;20469;-57
2023/07/01 01:47:41;;;;;;;0.60;0.47;;;;;;;18.77;100.00;95074.88;5071697;28;20434;-57
2023/07/01 01:50:11;;;;;;;4.47;0.37;;;;;;;18.69;100.00;95083.78;5072163;28;20809;-57
2023/07/01 01:52:42;;;;;;;0.73;0.73;;;;;;;18.30;100.00;95006.31;5071697;28;20923;-58
2023/07/01 01:55:13;;;;;;;0.83;0.60;;;;;;;18.81;100.00;95078.50;5071605;28;21010;-57
2023/07/01 01:57:42;;;;;;;0.50;0.40;;;;;;;18.82;100.00;95084.66;5071926;28;20437;-58
2023/07/01 02:00:13;;;;;;;0.50;0.30;;;;;;;18.68;100.00;95084.09;5071154;28;20495;-58
2023/07/01 02:02:41;;;;;;;0.80;0.80;;;;;;;18.64;100.00;95091.25;5071537;28;20437;-58
2023/07/01 02:05:10;;;;;;;0.50;0.40;;;;;;;18.55;100.00;95083.22;5071400;28;20556;-58
2023/07/01 02:07:39;;;;;;;0.50;0.40;;;;;;;18.68;100.00;95089.47;5071256;28;20474;-59
2023/07/01 02:10:09;;;;;;;0.40;0.30;;;;;;;18.20;100.00;95020.88;5071473;28;20574;-59
2023/07/01 02:12:37;;;;;;;0.40;0.30;;;;;;;18.69;100.00;95089.16;5071250;28;20977;-59
2023/07/01 02:15:06;;;;;;;0.60;0.40;;;;;;;18.75;100.00;95093.22;5071100;28;20508;-59
2023/07/01 02:17:36;;;;;;;0.50;0.47;;;;;;;18.85;100.00;95092.81;5071449;28;20437;-59
2023/07/01 02:20:05;;;;;;;2.80;0.30;;;;;;;18.75;100.00;95090.53;5071192;28;20445;-59
2023/07/01 02:22:34;;;;;;;0.47;0.37;;;;;;;18.73;100.00;95084.69;5071325;28;20942;-59
2023/07/01 02:25:03;;;;;;;0.50;0.37;;;;;;;18.67;100.00;95075.25;5071131;28;20472;-57
2023/07/01 02:27:32;;;;;;;0.57;0.40;;;;;;;18.52;100.00;95081.19;5071047;28;20437;-58
2023/07/01 02:30:02;;;;;;;0.47;0.30;;;;;;;18.48;100.00;95091.00;5070553;28;21026;-59
2023/07/01 02:32:31;;;;;;;0.40;0.30;;;;;;;18.20;100.00;95089.84;5070970;28;20449;-59
2023/07/01 02:35:00;;;;;;;0.57;0.47;;;;;;;17.90;100.00;95058.72;5070822;28;20441;-59
2023/07/01 02:37:29;;;;;;;0.50;0.40;;;;;;;18.28;100.00;95078.28;5070948;28;20914;-58
2023/07/01 02:39:57;;;;;;;0.50;0.40;;;;;;;18.37;100.00;95084.38;5071581;28;20469;-59
2023/07/01 02:42:26;;;;;;;0.87;0.40;;;;;;;18.39;100.00;95084.88;5070614;28;20462;-58
2023/07/01 02:44:54;;;;;;;0.40;0.30;;;;;;;18.46;100.00;95085.16;5071347;28;20469;-58
2023/07/01 02:47:23;;;;;;;0.40;0.30;;;;;;;18.47;100.00;95089.41;5070885;28;20873;-58
2023/07/01 02:49:51;;;;;;;0.50;0.30;;;;;;;18.35;100.00;95089.31;5070382;28;20995;-60
2023/07/01 02:52:21;;;;;;;1.93;0.50;;;;;;;18.42;100.00;95090.38;5074023;28;20447;-58
2023/07/01 02:54:49;;;;;;;0.50;0.30;;;;;;;18.38;100.00;95086.75;5075064;28;20503;-58
2023/07/01 02:57:18;;;;;;;0.87;0.50;;;;;;;18.32;100.00;95087.25;5074877;28;20512;-59
2023/07/01 02:59:48;;;;;;;0.60;0.40;;;;;;;18.33;100.00;95084.28;5074758;28;20464;-59
2023/07/01 03:02:16;;;;;;;0.60;0.40;;;;;;;18.33;100.00;95089.63;5074511;28;20476;-58
2023/07/01 03:04:45;;;;;;;0.57;0.30;;;;;;;18.30;100.00;95094.84;5074768;28;20448;-58
2023/07/01 03:07:13;;;;;;;0.40;0.20;;;;;;;18.29;100.00;95093.28;5074755;28;20433;-58
2023/07/01 03:09:43;;;;;;;0.77;0.77;;;;;;;18.37;100.00;95097.81;5074824;28;20480;-58
2023/07/01 03:12:11;;;;;;;0.60;0.53;;;;;;;18.48;100.00;95099.06;5074468;28;21039;-58
2023/07/01 03:14:40;;;;;;;0.50;0.33;;;;;;;18.20;100.00;95089.84;5074297;28;20844;-58
2023/07/01 03:17:08;;;;;;;0.50;0.47;;;;;;;18.30;100.00;95089.47;5074436;28;20949;-58
2023/07/01 03:19:40;;;;;;;0.40;0.30;;;;;;;18.26;100.00;95088.56;5073756;28;20971;-59
2023/07/01 03:22:09;;;;;;;0.50;0.33;;;;;;;18.23;100.00;95094.56;5073894;28;20442;-59
2023/07/01 03:24:37;;;;;;;0.50;0.30;;;;;;;18.12;100.00;95087.97;5074325;28;20440;-59
2023/07/01 03:27:07;;;;;;;0.40;0.30;;;;;;;17.99;100.00;95095.13;5074512;28;20470;-59
2023/07/01 03:29:36;;;;;;;0.50;0.37;;;;;;;18.08;100.00;95092.41;5074187;28;20524;-59
2023/07/01 03:32:04;;;;;;;0.40;0.30;;;;;;;18.11;100.00;95087.22;5074330;28;20434;-59
2023/07/01 03:34:33;;;;;;;0.50;0.30;;;;;;;18.37;100.00;95097.81;5074136;28;20491;-59
2023/07/01 03:37:01;;;;;;;0.40;0.20;;;;;;;18.18;100.00;95086.69;5074440;28;20446;-59
2023/07/01 03:39:29;;;;;;;0.50;0.30;;;;;;;17.95;100.00;95094.19;5073580;28;20445;-59
2023/07/01 03:41:58;;;;;;;0.50;0.40;;;;;;;18.02;100.00;95094.50;5074104;28;20437;-60
2023/07/01 03:44:27;;;;;;;0.80;0.37;;;;;;;18.19;100.00;95097.09;5074204;28;20525;-60
2023/07/01 03:46:56;;;;;;;1.10;0.43;;;;;;;18.05;100.00;95101.91;5073842;28;20477;-60
2023/07/01 03:49:24;;;;;;;0.50;0.40;;;;;;;18.24;100.00;95096.16;5073701;28;20437;-60
2023/07/01 03:51:54;;;;;;;0.60;0.40;;;;;;;18.35;100.00;95091.97;5073701;28;20441;-60
2023/07/01 03:54:22;;;;;;;0.50;0.40;;;;;;;18.40;100.00;95094.47;5073998;28;20437;-60
2023/07/01 03:56:51;;;;;;;0.40;0.30;;;;;;;18.30;100.00;95094.84;5073600;28;20812;-60
2023/07/01 03:59:19;;;;;;;0.50;0.37;;;;;;;17.61;100.00;95099.63;5073855;28;20491;-60
2023/07/01 04:01:49;;;;;;;1.50;1.00;;;;;;;17.44;100.00;95102.31;5073498;28;20544;-59
2023/07/01 04:04:17;;;;;;;0.50;0.40;;;;;;;17.70;100.00;95103.09;5073355;28;20434;-60
2023/07/01 04:06:46;;;;;;;0.40;0.30;;;;;;;17.77;100.00;95092.66;5073590;28;20488;-59
2023/07/01 04:09:14;;;;;;;0.50;0.30;;;;;;;18.09;100.00;95094.00;5073209;28;20890;-59
2023/07/01 04:11:43;;;;;;;0.80;0.80;;;;;;;17.78;100.00;95094.25;5073111;28;21007;-59
2023/07/01 04:14:14;;;;;;;0.53;0.40;;;;;;;17.84;100.00;95094.84;5072914;28;20484;-59
2023/07/01 04:16:44;;;;;;;14.53;0.40;;;;;;;17.82;100.00;95091.72;5072919;28;20524;-58
2023/07/01 04:19:13;;;;;;;0.40;0.30;;;;;;;18.00;100.00;95095.91;5073188;28;20893;-58
2023/07/01 04:21:43;;;;;;;0.50;0.50;;;;;;;18.22;100.00;95092.97;5072447;28;20438;-58
2023/07/01 04:24:11;;;;;;;0.57;0.53;;;;;;;18.47;100.00;95089.41;5055578;28;20512;-59
2023/07/01 04:26:41;;;;;;;0.50;0.30;;;;;;;18.63;100.00;95081.59;5071947;28;20569;-59
2023/07/01 04:29:09;;;;;;;3.90;0.83;;;;;;;18.34;100.00;95096.56;5072941;28;20669;-59
2023/07/01 04:31:38;;;;;;;0.50;0.30;;;;;;;18.71;100.00;95083.44;5073026;28;20445;-59
2023/07/01 04:34:06;;;;;;;0.40;0.30;;;;;;;18.95;100.00;95092.44;5072958;28;20441;-58
2023/07/01 04:36:36;;;;;;;1.03;1.03;;;;;;;19.02;100.00;95081.19;5072518;28;20437;-57
2023/07/01 04:39:04;;;;;;;0.60;0.40;;;;;;;19.16;100.00;95062.88;5072578;28;20990;-58
2023/07/01 04:41:33;;;;;;;0.50;0.30;;;;;;;19.33;100.00;95073.47;5072115;28;20515;-57
2023/07/01 04:44:01;;;;;;;0.80;0.60;;;;;;;19.20;100.00;95084.53;5073149;28;20469;-58
2023/07/01 04:46:31;;;;;;;0.50;0.30;;;;;;;19.07;100.00;95072.13;5072502;28;20503;-57
2023/07/01 04:49:00;;;;;;;0.50;0.40;;;;;;;19.31;100.00;95081.09;5072884;28;20441;-57
2023/07/01 04:51:29;;;;;;;0.40;0.30;;;;;;;19.12;100.00;95074.63;5072265;28;20446;-57
2023/07/01 04:54:00;;;;;;;0.40;0.30;;;;;;;19.01;100.00;95047.38;5072551;28;20480;-57
2023/07/01 04:56:29;;;;;;;0.50;0.30;;;;;;;19.44;100.00;95069.31;5072044;28;20890;-55
2023/07/01 04:58:57;;;;;;;2.20;0.50;;;;;;;19.70;99.38;95068.28;5072803;28;20568;-55
2023/07/01 05:01:25;;;;;;;0.90;0.90;;;;;;;19.51;100.00;95066.88;5072820;28;20441;-55
2023/07/01 05:03:54;;;;;;;0.60;0.53;;;;;;;19.36;100.00;95072.03;5072196;28;20999;-55
2023/07/01 05:06:23;;;;;;;0.43;0.30;;;;;;;19.64;100.00;95065.00;5071832;28;20473;-56
2023/07/01 05:08:51;;;;;;;0.60;0.60;;;;;;;19.32;100.00;95066.56;5072252;28;20503;-55
2023/07/01 05:11:21;;;;;;;2.30;0.50;;;;;;;19.73;100.00;95063.03;5072304;28;20543;-56
2023/07/01 05:13:49;;;;;;;4.77;1.57;;;;;;;19.19;100.00;95077.56;5071481;28;20473;-55
2023/07/01 05:16:18;;;;;;;2.40;1.90;;;;;;;18.89;100.00;95077.66;5071698;28;20499;-56
2023/07/01 05:18:46;;;;;;;2.70;2.50;;;;;;;18.94;100.00;95068.59;5072088;28;20957;-55
2023/07/01 05:21:14;;;;;;;3.10;1.80;;;;;;;18.86;100.00;95067.56;5071886;28;20507;-55
2023/07/01 05:23:43;;;;;;;1.83;1.30;;;;;;;18.97;100.00;95068.72;5071884;28;20495;-55
2023/07/01 05:26:11;;;;;;;1.47;1.37;;;;;;;19.76;100.00;95065.03;5070845;28;20842;-55
2023/07/01 05:28:41;;;;;;;0.87;0.80;;;;;;;20.20;100.00;95058.81;5071829;28;20495;-55
2023/07/01 05:31:09;;;;;;;0.53;0.50;;;;;;;20.56;96.89;95065.34;5071603;28;20434;-55
2023/07/01 05:33:37;;;;;;;0.93;0.93;;;;;;;20.31;96.90;95069.19;5071644;28;20447;-57
2023/07/01 05:36:06;;;;;;;2.60;0.57;;;;;;;20.52;98.15;95067.13;5071119;28;20490;-56
2023/07/01 05:38:35;;;;;;;1.03;1.03;;;;;;;19.99;97.48;95070.78;5071891;28;20811;-57
2023/07/01 05:41:03;;;;;;;3.70;0.60;;;;;;;19.98;100.00;95070.03;5071783;28;20463;-56
2023/07/01 05:43:32;;;;;;;0.83;0.70;;;;;;;20.65;97.25;95066.00;5071429;28;20460;-56
2023/07/01 05:46:01;;;;;;;0.80;0.73;;;;;;;20.59;97.41;95067.38;5071315;28;20460;-56
2023/07/01 05:48:30;;;;;;;0.97;0.97;;;;;;;20.73;97.90;95070.50;5072044;28;20509;-56
2023/07/01 05:50:58;;;;;;;0.53;0.53;;;;;;;21.13;91.72;95078.63;5070794;28;20434;-56
2023/07/01 05:53:26;;;;;;;0.60;0.53;;;;;;;21.29;90.68;95066.81;5071421;28;20442;-56
2023/07/01 05:55:55;;;;;;;1.40;0.57;;;;;;;20.68;91.78;95073.41;5071349;28;20464;-55
2023/07/01 05:58:23;;;;;;;1.20;0.67;;;;;;;20.89;92.40;95071.38;5071339;28;20942;-56
2023/07/01 06:00:51;;;;;;;1.07;0.97;;;;;;;21.25;93.36;95076.69;5071302;28;20729;-55
2023/07/01 06:03:21;;;;;;;1.60;1.50;;;;;;;20.74;91.68;95072.06;5058097;28;20442;-56
2023/07/01 06:05:49;;;;;;;0.50;0.40;;;;;;;21.36;89.97;95074.28;5063123;28;20911;-56
2023/07/01 06:08:18;;;;;;;0.63;0.50;;;;;;;21.93;85.70;95082.03;5066963;28;20473;-57
2023/07/01 06:10:46;;;;;;;0.70;0.63;;;;;;;21.56;87.10;95078.69;5071576;28;20487;-57
2023/07/01 06:13:15;;;;;;;0.63;0.57;;;;;;;21.88;86.81;95074.97;5071130;28;20454;-58
2023/07/01 06:15:43;;;;;;;0.57;0.50;;;;;;;22.47;82.54;95077.59;5071384;28;20442;-58
2023/07/01 06:18:12;;;;;;;0.70;0.57;;;;;;;22.89;80.15;95063.53;5071209;28;20438;-58
2023/07/01 06:20:42;;;;;;;0.93;0.93;;;;;;;23.03;78.46;95064.63;5071822;28;20524;-58
2023/07/01 06:23:11;;;;;;;0.70;0.70;;;;;;;22.97;78.17;95057.16;5070975;28;20469;-58
2023/07/01 06:25:42;;;;;;;3.83;1.20;;;;;;;22.94;78.30;95068.66;5074594;28;20463;-58
2023/07/01 06:28:10;;;;;;;1.27;0.93;;;;;;;22.93;79.13;95067.09;5075276;28;20473;-58
2023/07/01 06:30:38;;;;;;;0.50;0.40;;;;;;;22.83;76.92;95010.91;5075383;28;20855;-58
2023/07/01 06:33:08;;;;;;;1.17;0.40;;;;;;;23.74;74.03;95056.03;5074897;28;20972;-58
2023/07/01 06:35:41;;;;;;;0.47;0.33;;;;;;;24.11;72.85;95060.97;5075552;28;20434;-58
2023/07/01 06:38:11;;;;;;;0.60;0.60;;;;;;;23.84;73.12;95058.16;5074787;28;20980;-60
2023/07/01 06:40:39;;;;;;;0.40;0.40;;;;;;;24.09;72.18;95042.38;5074885;28;20972;-58
2023/07/01 06:43:07;;;;;;;1.27;1.27;;;;;;;23.59;71.72;95051.50;5075161;28;20438;-57
2023/07/01 06:45:37;;;;;;;0.77;0.77;;;;;;;24.20;73.39;95047.97;5074165;28;20940;-57
2023/07/01 06:48:06;;;;;;;1.23;0.77;;;;;;;24.10;71.19;95045.88;5075087;28;20846;-59
2023/07/01 06:50:35;;;;;;;1.77;0.60;;;;;;;24.38;72.29;95036.28;5074806;28;20437;-59
2023/07/01 06:53:04;;;;;;;0.70;0.63;;;;;;;24.69;69.90;95042.56;5074930;28;20965;-59
2023/07/01 06:55:34;;;;;;;0.73;0.67;;;;;;;24.99;68.51;95044.19;5074768;28;20450;-60
2023/07/01 06:58:03;;;;;;;0.90;0.90;;;;;;;25.65;65.77;95046.16;5074570;28;20526;-60
2023/07/01 07:00:31;;;;;;;1.13;1.10;;;;;;;25.53;65.79;95021.22;5074908;28;20441;-59
2023/07/01 07:03:00;;;;;;;2.20;0.83;;;;;;;25.43;65.01;95033.47;5074809;28;20511;-60
2023/07/01 07:05:29;;;;;;;0.73;0.40;;;;;;;26.28;62.94;95026.25;5073930;28;20445;-59
2023/07/01 07:07:58;;;;;;;0.70;0.60;;;;;;;25.97;63.27;95029.44;5074685;28;20838;-60
2023/07/01 07:10:26;;;;;;;0.60;0.57;;;;;;;25.86;63.06;95023.91;5074313;28;20933;-59
2023/07/01 07:12:56;;;;;;;0.50;0.30;;;;;;;26.64;61.22;95019.91;5074849;28;20552;-60
2023/07/01 07:15:24;;;;;;;0.63;0.50;;;;;;;26.36;61.55;95004.19;5074248;28;20469;-60
2023/07/01 07:17:52;;;;;;;3.30;1.33;;;;;;;26.10;61.33;95009.78;5074482;28;20464;-62
2023/07/01 07:20:21;;;;;;;0.77;0.70;;;;;;;26.54;59.69;95015.19;5074493;28;20476;-62
2023/07/01 07:22:49;;;;;;;0.80;0.50;;;;;;;26.73;60.80;95011.44;5073939;28;20437;-61
2023/07/01 07:25:18;;;;;;;0.60;0.57;;;;;;;26.75;59.64;95015.34;5074650;28;20449;-61
2023/07/01 07:27:46;;;;;;;1.20;1.10;;;;;;;26.60;61.27;95013.69;5074285;28;20461;-60
2023/07/01 07:30:16;;;;;;;0.80;0.80;;;;;;;26.72;61.08;94999.78;5073217;28;20979;-61
2023/07/01 07:32:45;;;;;;;0.60;0.60;;;;;;;26.73;59.72;95012.22;5074032;28;20503;-60
2023/07/01 07:35:13;;;;;;;1.37;1.37;;;;;;;27.06;61.96;95014.78;5074068;28;20871;-60
2023/07/01 07:37:42;;;;;;;5.30;0.60;;;;;;;27.46;62.29;95002.13;5073593;28;20874;-61
2023/07/01 07:40:11;;;;;;;1.10;0.87;;;;;;;27.70;58.97;94991.28;5073957;28;20514;-60
2023/07/01 07:42:39;;;;;;;0.80;0.60;;;;;;;27.98;55.31;94997.97;5073704;28;20434;-61
2023/07/01 07:45:09;;;;;;;0.53;0.43;;;;;;;28.31;57.32;94989.44;5073889;28;20433;-61
2023/07/01 07:47:38;;;;;;;0.90;0.90;;;;;;;28.43;55.36;94991.78;5073859;28;20492;-61
2023/07/01 07:50:07;;;;;;;1.37;1.27;;;;;;;27.93;56.20;94998.34;5073862;28;20976;-62
2023/07/01 07:52:35;;;;;;;0.60;0.50;;;;;;;27.50;56.09;94995.53;5073581;28;20473;-61
2023/07/01 07:55:04;;;;;;;0.97;0.77;;;;;;;27.44;56.12;94991.63;5073767;28;20870;-61
2023/07/01 07:57:33;;;;;;;0.70;0.70;;;;;;;28.48;55.47;94993.34;5048069;28;20441;-59
2023/07/01 08:00:02;;;;;;;0.50;0.40;;;;;;;28.42;55.45;94992.94;5073605;28;20491;-60
2023/07/01 08:02:30;;;;;;;5.30;0.50;;;;;;;27.86;55.08;94992.88;5073500;28;20434;-61
2023/07/01 08:05:00;;;;;;;0.60;0.60;;;;;;;28.79;54.89;94982.38;5073557;28;20528;-61
2023/07/01 08:07:28;;;;;;;0.50;0.40;;;;;;;28.55;57.42;94982.41;5073622;28;21106;-61
2023/07/01 08:09:56;;;;;;;0.50;0.50;;;;;;;28.33;54.43;94966.06;5073425;28;20570;-61
2023/07/01 08:12:25;;;;;;;0.40;0.40;;;;;;;28.22;53.28;94975.44;5073524;28;20968;-60
2023/07/01 08:14:53;;;;;;;1.43;1.33;;;;;;;28.09;54.66;94983.22;5072912;28;20485;-60
2023/07/01 08:17:22;;;;;;;1.13;0.50;;;;;;;28.50;55.10;94980.06;5073652;28;20433;-60
2023/07/01 08:19:50;;;;;;;1.33;1.30;;;;;;;28.45;54.29;94983.19;5071997;28;20444;-60
2023/07/01 08:22:20;;;;;;;1.00;0.90;;;;;;;28.38;53.72;94970.38;5073325;28;21111;-60
2023/07/01 08:24:48;;;;;;;0.47;0.40;;;;;;;29.00;53.68;94976.09;5072792;28;20434;-60
2023/07/01 08:27:16;;;;;;;0.93;0.93;;;;;;;29.33;51.94;94974.84;5073558;28;20834;-61
2023/07/01 08:29:45;;;;;;;0.97;0.40;;;;;;;29.82;52.12;94971.09;5073037;28;20559;-60
2023/07/01 08:32:13;;;;;;;0.80;0.67;;;;;;;29.19;51.89;94978.38;5073040;28;20449;-60
2023/07/01 08:34:41;;;;;;;0.73;0.60;;;;;;;28.73;52.00;94970.34;5072513;28;20425;-60
2023/07/01 08:37:10;;;;;;;2.20;0.50;;;;;;;29.67;52.33;94956.72;5073123;28;20441;-61
2023/07/01 08:39:40;;;;;;;1.13;1.13;;;;;;;29.03;52.30;94952.69;5072856;28;20437;-60
2023/07/01 08:42:10;;;;;;;0.60;0.50;;;;;;;28.67;51.53;94961.00;5073030;28;20442;-58
2023/07/01 08:44:41;;;;;;;0.77;0.77;;;;;;;29.84;52.78;94961.31;5072893;28;20491;-54
2023/07/01 08:47:09;;;;;;;0.50;0.50;;;;;;;28.83;52.24;94961.34;5072272;28;20992;-54
2023/07/01 08:49:40;;;;;;;1.13;0.73;;;;;;;28.45;53.41;94955.94;5071903;28;20976;-54
2023/07/01 08:52:11;;;;;;;0.73;0.50;;;;;;;29.71;54.17;94951.22;5072399;28;20979;-54
2023/07/01 08:54:41;;;;;;;0.50;0.50;;;;;;;30.10;52.80;94949.03;5072992;28;20434;-54
2023/07/01 08:57:10;;;;;;;0.77;0.77;;;;;;;29.79;52.01;94950.81;5072314;28;20472;-54
2023/07/01 08:59:39;;;;;;;0.60;0.60;;;;;;;29.74;51.57;94940.28;5072443;28;20445;-57
2023/07/01 09:02:08;;;;;;;0.70;0.70;;;;;;;29.55;51.35;94947.00;5072295;28;20494;-54
2023/07/01 09:04:38;;;;;;;0.50;0.47;;;;;;;30.30;51.13;94941.03;5072559;28;20473;-55
2023/07/01 09:07:08;;;;;;;1.43;0.60;;;;;;;30.55;50.35;94927.94;5071813;28;20464;-55
2023/07/01 09:09:38;;;;;;;1.30;1.20;;;;;;;29.51;51.97;94931.84;5072475;28;20473;-54
2023/07/01 09:12:10;;;;;;;1.27;1.10;;;;;;;29.76;51.09;94943.38;5046018;28;20429;-55
2023/07/01 09:14:58;;;;;;;0.83;0.83;;;;;;;31.01;53.17;94938.41;5072068;28;20469;-55
2023/07/01 09:17:30;;;;;;;0.57;0.57;;;;;;;30.56;53.74;94937.72;5072360;28;20445;-55
2023/07/01 09:20:00;;;;;;;0.50;0.50;;;;;;;30.68;52.57;94935.22;5072000;28;20490;-56
2023/07/01 09:22:29;;;;;;;0.60;0.60;;;;;;;31.35;50.88;94918.03;5072460;28;20437;-54
2023/07/01 09:24:57;;;;;;;1.23;1.13;;;;;;;31.66;50.06;94918.03;5071177;28;20819;-54
2023/07/01 09:27:41;;;;;;;0.70;0.70;;;;;;;32.06;48.21;94908.81;5072415;28;20437;-55
2023/07/01 09:30:28;;;;;;;0.93;0.63;;;;;;;31.48;48.87;94912.00;5048955;28;21007;-55
2023/07/01 09:33:21;;;;;;;0.50;0.40;;;;;;;32.67;47.81;94900.31;5072123;28;20437;-54
2023/07/01 09:35:54;;;;;;;1.23;1.13;;;;;;;31.30;48.64;94902.06;5061702;28;20441;-55
2023/07/01 09:38:23;;;;;;;0.70;0.70;;;;;;;32.40;47.37;94892.94;5071608;28;20471;-55
2023/07/01 09:40:51;;;;;;;0.80;0.50;;;;;;;32.97;48.73;94894.63;5071190;28;20441;-55
2023/07/01 09:43:32;;;;;;;1.83;0.60;;;;;;;32.58;48.50;94893.44;5072252;28;20441;-56
2023/07/01 09:46:00;;;;;;;0.70;0.70;;;;;;;32.88;49.54;94883.44;5071458;28;20528;-55
2023/07/01 09:48:29;;;;;;;0.97;0.40;;;;;;;33.28;46.77;94874.00;5072057;28;20456;-55
2023/07/01 09:51:02;;;;;;;0.70;0.37;;;;;;;32.32;47.68;94817.47;5071179;28;20471;-55
2023/07/01 09:53:32;;;;;;;0.40;0.40;;;;;;;32.55;48.40;94869.56;5071262;28;20444;-55
2023/07/01 09:56:03;;;;;;;0.90;0.50;;;;;;;32.98;48.30;94871.47;5045859;28;20484;-55
2023/07/01 09:58:33;;;;;;;0.30;0.30;;;;;;;34.13;46.28;94870.09;5070950;28;20432;-55
2023/07/01 10:01:02;;;;;;;0.57;0.57;;;;;;;33.76;46.12;94862.34;5071173;28;20433;-56
2023/07/01 10:03:33;;;;;;;0.60;0.60;;;;;;;33.27;46.99;94861.47;5071062;28;20515;-56
2023/07/01 10:06:02;;;;;;;0.90;0.87;;;;;;;32.96;47.31;94849.16;5071505;28;20948;-55
2023/07/01 10:08:30;;;;;;;1.60;1.33;;;;;;;32.64;47.39;94855.28;5071003;28;20843;-56
2023/07/01 10:11:06;;;;;;;0.50;0.40;;;;;;;34.01;46.18;94850.72;5071150;28;20468;-55
2023/07/01 10:13:42;;;;;;;0.70;0.70;;;;;;;34.65;44.99;94844.38;5070983;28;20545;-55
2023/07/01 10:16:10;;;;;;;0.50;0.40;;;;;;;34.57;45.36;94841.06;5070936;28;20483;-55
2023/07/01 10:18:39;;;;;;;0.63;0.60;;;;;;;33.22;46.38;94832.53;5045170;28;20502;-55
2023/07/01 10:21:28;;;;;;;0.93;0.93;;;;;;;33.10;47.42;94824.16;5071131;28;20876;-55
2023/07/01 10:23:58;;;;;;;1.20;0.70;;;;;;;34.20;45.81;94819.63;5071065;28;20447;-60
2023/07/01 10:26:43;;;;;;;0.63;0.63;;;;;;;33.86;45.50;94820.84;5071343;28;20514;-60
2023/07/01 10:29:55;;;;;;;0.77;0.77;;;;;;;33.80;45.19;94811.56;5070947;28;20468;-59
2023/07/01 10:32:33;;;;;;;0.83;0.83;;;;;;;33.62;45.62;94793.97;5070982;28;20437;-60
2023/07/01 10:35:13;;;;;;;0.80;0.80;;;;;;;33.74;45.72;94798.78;5048077;28;20493;-61
2023/07/01 10:37:42;;;;;;;1.20;1.03;;;;;;;35.06;44.03;94789.34;5067655;28;20468;-61
2023/07/01 10:40:43;;;;;;;0.77;0.67;;;;;;;34.79;43.19;94789.69;5062105;28;20448;-61
2023/07/01 10:43:29;;;;;;;0.80;0.80;;;;;;;34.35;44.88;94788.56;5049464;28;20449;-60
2023/07/01 10:46:10;;;;;;;1.50;0.80;;;;;;;35.40;42.23;94781.16;5070803;28;20428;-61
2023/07/01 10:48:40;;;;;;;0.70;0.70;;;;;;;34.24;42.77;94790.03;5070748;28;20429;-60
2023/07/01 10:51:09;;;;;;;0.83;0.83;;;;;;;34.07;43.44;94777.53;5070831;28;20477;-59
2023/07/01 10:53:57;;;;;;;0.57;0.57;;;;;;;34.01;43.97;94787.47;5070921;28;20477;-60
2023/07/01 10:56:26;;;;;;;0.40;0.40;;;;;;;35.94;41.77;94771.97;5071053;28;20484;-60
2023/07/01 10:59:20;;;;;;;0.63;0.53;;;;;;;35.61;41.91;94764.00;5070783;28;20446;-60
2023/07/01 11:01:52;;;;;;;0.60;0.57;;;;;;;35.72;41.05;94771.91;5070837;28;20447;-60
2023/07/01 11:04:21;;;;;;;1.00;0.77;;;;;;;35.56;40.68;94772.03;5071053;28;20234;-60
2023/07/01 11:06:51;;;;;;;1.03;0.97;;;;;;;33.86;42.70;94770.56;5070631;28;20460;-63
2023/07/01 11:09:28;;;;;;;3.60;0.70;;;;;;;34.69;41.50;94779.75;5070839;28;20248;-61
2023/07/01 11:11:58;;;;;;;0.70;0.50;;;;;;;32.85;43.71;94769.78;5071996;28;20244;-61
2023/07/01 11:14:34;;;;;;;1.83;1.00;;;;;;;31.89;45.13;94707.00;5074622;28;20241;-62
2023/07/01 11:17:08;;;;;;;0.50;0.50;;;;;;;32.38;45.30;94763.69;5050490;28;20194;-60
2023/07/01 11:19:36;;;;;;;1.73;0.60;;;;;;;33.07;45.03;94764.59;5073990;28;20847;-61
2023/07/01 11:22:05;;;;;;;0.90;0.40;;;;;;;34.17;44.29;94763.50;5074014;28;20835;-61
2023/07/01 11:24:34;;;;;;;1.37;0.80;;;;;;;34.41;42.06;94706.22;5074109;28;21065;-61
2023/07/01 11:27:05;;;;;;;2.30;0.87;;;;;;;35.18;41.59;94757.47;5074180;28;20437;-61
2023/07/01 11:29:34;;;;;;;1.17;1.13;;;;;;;33.29;43.64;94708.00;5073866;28;20460;-61
2023/07/01 11:32:09;;;;;;;0.80;0.77;;;;;;;32.86;45.07;94754.06;5074088;28;20444;-61
2023/07/01 11:34:37;;;;;;;1.90;1.10;;;;;;;32.81;44.86;94757.31;5073730;28;20495;-61
2023/07/01 11:37:06;;;;;;;0.90;0.90;;;;;;;32.26;45.72;94747.81;5074232;28;20441;-62
2023/07/01 11:39:44;;;;;;;0.93;0.93;;;;;;;32.47;44.73;94747.41;5074065;28;20437;-61
2023/07/01 11:42:12;;;;;;;1.57;1.47;;;;;;;31.90;46.04;94735.97;5073835;28;20524;-61
2023/07/01 11:44:41;;;;;;;0.70;0.60;;;;;;;31.47;44.68;94738.69;5074007;28;20437;-61